Time;durP1;ratioP1;P1;durP2;ratioP2;P2;SDS_P1;SDS_P2;PMS_P1;PMS_P2;Temp;Humidity;BMP_temperature;BMP_pressure;BME280_temperature;BME280_humidity;BME280_pressure;Samples;Min_cycle;Max_cycle;Signal;HPM_P1;HPM_P2
2021/10/08 00:01:42;;;;;;;3.47;3.10;;;;;;;10.79;85.35;97783.47;5055879;28;20237;-74
2021/10/08 00:04:07;;;;;;;4.10;3.70;;;;;;;10.65;86.13;97779.22;5073786;28;20178;-74
2021/10/08 00:06:33;;;;;;;4.00;3.60;;;;;;;10.65;85.95;97781.03;5073115;28;20189;-74
2021/10/08 00:08:58;;;;;;;6.83;3.80;;;;;;;10.73;86.37;97780.84;5073981;28;20585;-74
2021/10/08 00:11:25;;;;;;;3.87;3.47;;;;;;;10.68;86.23;97776.22;5073070;28;20755;-74
2021/10/08 00:13:50;;;;;;;4.23;3.83;;;;;;;10.76;85.65;97786.47;5073509;28;20189;-74
2021/10/08 00:16:16;;;;;;;7.10;3.90;;;;;;;10.68;86.06;97781.47;5056079;28;20189;-73
2021/10/08 00:18:41;;;;;;;6.17;3.50;;;;;;;10.62;86.95;97782.25;5073213;28;20276;-73
2021/10/08 00:21:08;;;;;;;3.90;3.50;;;;;;;10.49;87.46;97782.25;5073486;28;20220;-73
2021/10/08 00:23:34;;;;;;;5.47;3.63;;;;;;;10.51;87.83;97775.00;5073205;28;20177;-73
2021/10/08 00:26:00;;;;;;;4.30;3.90;;;;;;;10.56;87.88;97780.44;5073512;28;20204;-73
2021/10/08 00:28:26;;;;;;;4.77;4.10;;;;;;;10.57;87.39;97776.81;5073049;28;20200;-73
2021/10/08 00:30:51;;;;;;;4.03;3.67;;;;;;;10.39;88.06;97773.97;5073312;28;20184;-74
2021/10/08 00:33:17;;;;;;;4.23;3.80;;;;;;;10.38;87.86;97777.59;5073029;28;20177;-73
2021/10/08 00:35:42;;;;;;;4.30;3.90;;;;;;;10.23;88.46;97774.38;5064448;28;20185;-74
2021/10/08 00:38:08;;;;;;;5.97;4.57;;;;;;;10.09;89.69;97770.06;5055515;28;20260;-74
2021/10/08 00:40:40;;;;;;;4.27;3.87;;;;;;;10.12;89.47;97773.13;5072940;28;20227;-73
2021/10/08 00:43:06;;;;;;;5.57;4.33;;;;;;;10.03;90.08;97771.69;5073442;28;20252;-73
2021/10/08 00:45:31;;;;;;;5.73;5.10;;;;;;;10.04;90.44;97765.44;5071727;28;20483;-74
2021/10/08 00:47:59;;;;;;;5.07;4.57;;;;;;;9.96;90.58;97774.31;5073178;28;20282;-74
2021/10/08 00:50:25;;;;;;;4.53;4.10;;;;;;;9.80;91.09;97768.63;5072548;28;20219;-73
2021/10/08 00:52:51;;;;;;;4.13;3.73;;;;;;;9.84;91.41;97769.84;5073013;28;20201;-74
2021/10/08 00:55:17;;;;;;;8.93;4.60;;;;;;;10.03;90.47;97762.00;5072801;28;20193;-74
2021/10/08 00:57:45;;;;;;;7.00;4.23;;;;;;;9.91;90.33;97762.81;5054807;28;20182;-73
2021/10/08 01:00:15;;;;;;;5.27;4.40;;;;;;;9.79;91.51;97759.16;5072961;28;20197;-73
2021/10/08 01:02:40;;;;;;;5.93;4.57;;;;;;;9.79;91.54;97761.75;5072354;28;20181;-74
2021/10/08 01:05:06;;;;;;;5.37;4.53;;;;;;;9.77;91.68;97756.72;5072540;28;20666;-73
2021/10/08 01:07:32;;;;;;;4.77;4.27;;;;;;;9.67;92.91;97751.06;5073262;28;20678;-73
2021/10/08 01:09:57;;;;;;;5.03;4.50;;;;;;;9.57;93.05;97751.44;5072444;28;20181;-73
2021/10/08 01:12:23;;;;;;;5.57;4.83;;;;;;;9.51;93.83;97754.03;5072135;28;20251;-73
2021/10/08 01:14:48;;;;;;;5.80;5.30;;;;;;;9.52;93.67;97747.78;5072785;28;20185;-74
2021/10/08 01:17:20;;;;;;;5.67;5.03;;;;;;;9.60;92.74;97747.59;5072120;28;20173;-73
2021/10/08 01:19:46;;;;;;;10.00;6.00;;;;;;;9.55;93.31;97748.19;5064785;28;20188;-73
2021/10/08 01:22:13;;;;;;;8.10;5.90;;;;;;;9.68;92.57;97751.88;5072829;28;20657;-73
2021/10/08 01:24:39;;;;;;;7.57;5.90;;;;;;;9.58;93.29;97757.47;5072206;28;20284;-74
2021/10/08 01:27:07;;;;;;;8.90;5.80;;;;;;;9.59;93.32;97749.41;5072288;28;20705;-74
2021/10/08 01:29:45;;;;;;;9.20;5.80;;;;;;;9.56;93.14;97744.59;5071593;28;20264;-74
2021/10/08 01:32:10;;;;;;;6.47;5.53;;;;;;;9.39;94.31;97751.16;5072878;28;20173;-74
2021/10/08 01:34:36;;;;;;;6.07;5.47;;;;;;;9.53;93.87;97752.00;5053882;28;20231;-73
2021/10/08 01:37:01;;;;;;;7.03;6.07;;;;;;;9.33;94.50;97740.66;5072609;28;20204;-74
2021/10/08 01:39:26;;;;;;;7.43;6.10;;;;;;;9.26;95.13;97740.63;5072255;28;20181;-74
2021/10/08 01:41:52;;;;;;;6.20;5.37;;;;;;;9.16;96.87;97742.78;5072415;28;20238;-73
2021/10/08 01:44:17;;;;;;;6.87;6.03;;;;;;;9.17;96.48;97754.88;5072155;28;20212;-73
2021/10/08 01:46:42;;;;;;;9.03;6.70;;;;;;;9.19;96.52;97747.66;5071600;28;20672;-73
2021/10/08 01:49:08;;;;;;;7.47;6.07;;;;;;;9.12;97.69;97747.63;5072741;28;20216;-73
2021/10/08 01:51:33;;;;;;;7.43;6.50;;;;;;;9.19;96.91;97751.03;5072218;28;20193;-74
2021/10/08 01:53:58;;;;;;;8.03;5.83;;;;;;;9.22;97.32;97744.63;5072009;28;20185;-74
2021/10/08 01:56:26;;;;;;;7.20;5.83;;;;;;;9.07;97.95;97742.16;5071765;28;20514;-74
2021/10/08 01:58:52;;;;;;;10.27;6.57;;;;;;;9.18;97.84;97741.63;5072055;28;20177;-74
2021/10/08 02:01:17;;;;;;;7.57;6.50;;;;;;;9.17;97.88;97740.00;5071522;28;20744;-74
2021/10/08 02:03:46;;;;;;;8.90;6.60;;;;;;;8.87;99.04;97738.59;5072268;28;20599;-74
2021/10/08 02:06:11;;;;;;;8.95;8.05;;;;;;;8.85;100.00;97745.84;5070603;28;20406;-73
2021/10/08 02:08:37;;;;;;;10.03;8.20;;;;;;;8.82;100.00;97730.53;5070965;28;20388;-73
2021/10/08 02:11:02;;;;;;;8.57;7.30;;;;;;;8.86;100.00;97736.97;5052218;28;20411;-73
2021/10/08 02:13:28;;;;;;;7.87;7.07;;;;;;;8.95;100.00;97740.28;5070746;28;20895;-74
2021/10/08 02:15:53;;;;;;;8.13;7.33;;;;;;;9.02;100.00;97735.91;5073918;28;20471;-73
2021/10/08 02:18:18;;;;;;;7.70;7.00;;;;;;;9.14;98.59;97737.75;5075256;28;20396;-73
2021/10/08 02:20:44;;;;;;;7.97;7.17;;;;;;;9.14;98.78;97740.38;5074621;28;20562;-73
2021/10/08 02:23:10;;;;;;;9.63;7.43;;;;;;;9.02;98.94;97736.69;5074312;28;20469;-74
2021/10/08 02:25:36;;;;;;;8.00;7.20;;;;;;;9.05;99.26;97744.16;5074088;28;20402;-74
2021/10/08 02:28:02;;;;;;;7.97;7.17;;;;;;;9.06;98.91;97750.19;5074707;28;20387;-73
2021/10/08 02:30:28;;;;;;;10.05;7.80;;;;;;;9.03;99.20;97742.72;5074620;28;20387;-73
2021/10/08 02:32:53;;;;;;;9.57;7.95;;;;;;;8.94;99.33;97744.69;5074303;28;20485;-73
2021/10/08 02:35:19;;;;;;;8.70;7.80;;;;;;;8.92;99.81;97745.88;5056258;28;20444;-73
2021/10/08 02:37:44;;;;;;;8.70;7.80;;;;;;;8.73;100.00;97748.19;5074565;28;21088;-73
2021/10/08 02:40:10;;;;;;;8.23;7.43;;;;;;;8.85;100.00;97745.84;5074699;28;20419;-73
2021/10/08 02:42:35;;;;;;;7.00;6.17;;;;;;;8.99;99.08;97742.31;5075426;28;20217;-73
2021/10/08 02:45:01;;;;;;;8.53;6.47;;;;;;;9.01;98.94;97742.13;5075485;28;20706;-73
2021/10/08 02:47:26;;;;;;;6.80;6.10;;;;;;;8.98;98.85;97735.44;5075469;28;20197;-73
2021/10/08 02:49:51;;;;;;;7.60;6.83;;;;;;;8.80;99.65;97740.41;5057589;28;20181;-73
2021/10/08 02:52:17;;;;;;;7.70;6.50;;;;;;;8.83;100.00;97742.59;5075690;28;20185;-73
2021/10/08 02:54:42;;;;;;;8.13;7.27;;;;;;;8.53;100.00;97736.75;5075072;28;20219;-73
2021/10/08 02:57:07;;;;;;;8.73;7.43;;;;;;;8.46;100.00;97741.16;5075510;28;20649;-73
2021/10/08 02:59:33;;;;;;;9.90;7.57;;;;;;;8.27;100.00;97734.72;5075007;28;20280;-73
2021/10/08 03:01:58;;;;;;;10.30;8.10;;;;;;;8.20;100.00;97738.28;5074874;28;20209;-74
2021/10/08 03:04:24;;;;;;;10.00;7.80;;;;;;;8.29;100.00;97739.78;5074796;28;20606;-74
2021/10/08 03:06:49;;;;;;;10.00;8.20;;;;;;;8.12;100.00;97741.03;5075198;28;20601;-73
2021/10/08 03:09:14;;;;;;;10.67;8.80;;;;;;;8.14;100.00;97742.44;5075101;28;20306;-74
2021/10/08 03:11:40;;;;;;;9.80;8.30;;;;;;;8.16;100.00;97737.03;5074653;28;20248;-74
2021/10/08 03:14:05;;;;;;;12.57;8.47;;;;;;;8.21;100.00;97737.28;5074601;28;20186;-74
2021/10/08 03:16:31;;;;;;;9.63;8.47;;;;;;;8.32;100.00;97736.81;5074644;28;20653;-73
2021/10/08 03:18:56;;;;;;;9.63;8.07;;;;;;;8.29;100.00;97737.16;5075167;28;20533;-73
2021/10/08 03:21:22;;;;;;;11.30;8.20;;;;;;;8.41;100.00;97734.88;5075055;28;20212;-74
2021/10/08 03:23:47;;;;;;;11.17;8.40;;;;;;;8.44;100.00;97731.88;5070341;28;20181;-73
2021/10/08 03:26:13;;;;;;;12.83;8.23;;;;;;;8.32;100.00;97740.22;5073356;28;20189;-73
2021/10/08 03:28:38;;;;;;;11.73;8.60;;;;;;;8.38;100.00;97743.88;5074790;28;20265;-74
2021/10/08 03:31:04;;;;;;;9.73;7.77;;;;;;;8.39;100.00;97745.50;5074569;28;20260;-74
2021/10/08 03:33:30;;;;;;;11.53;8.50;;;;;;;8.06;100.00;97739.97;5074135;28;20180;-74
2021/10/08 03:35:55;;;;;;;11.90;8.93;;;;;;;8.11;100.00;97739.41;5074467;28;20216;-74
2021/10/08 03:38:21;;;;;;;11.23;8.43;;;;;;;8.06;100.00;97733.94;5074263;28;20539;-74
2021/10/08 03:41:07;;;;;;;11.43;8.63;;;;;;;8.18;100.00;97743.72;5074624;28;20197;-73
2021/10/08 03:43:34;;;;;;;13.10;9.23;;;;;;;8.16;100.00;97752.72;5074179;28;20185;-73
2021/10/08 03:46:06;;;;;;;13.77;9.13;;;;;;;8.12;100.00;97751.47;5074024;28;20189;-73
2021/10/08 03:50:57;;;;;;;10.93;8.37;;;;;;;7.82;100.00;97746.38;5074492;28;20189;-73
2021/10/08 03:53:22;;;;;;;12.63;9.30;;;;;;;7.79;100.00;97748.53;5056070;28;20238;-73
2021/10/08 03:55:48;;;;;;;12.57;9.60;;;;;;;7.78;100.00;97744.31;5074069;28;20209;-73
2021/10/08 03:58:13;;;;;;;11.90;9.13;;;;;;;7.92;100.00;97751.28;5074640;28;20556;-73
2021/10/08 04:00:38;;;;;;;13.73;9.67;;;;;;;8.20;100.00;97756.56;5073721;28;20614;-73
2021/10/08 04:03:04;;;;;;;12.13;9.47;;;;;;;8.19;100.00;97750.53;5074409;28;20196;-73
2021/10/08 04:05:30;;;;;;;13.53;8.87;;;;;;;8.19;100.00;97754.97;5073508;28;20207;-74
2021/10/08 04:07:55;;;;;;;11.37;9.30;;;;;;;8.19;100.00;97755.75;5074347;28;20215;-73
2021/10/08 04:10:20;;;;;;;11.73;9.77;;;;;;;8.19;100.00;97752.34;5073265;28;20299;-73
2021/10/08 04:12:46;;;;;;;12.27;9.53;;;;;;;8.07;100.00;97753.84;5072872;28;20184;-73
2021/10/08 04:15:11;;;;;;;14.23;9.70;;;;;;;8.15;100.00;97753.69;5073152;28;20188;-73
2021/10/08 04:17:37;;;;;;;13.53;10.07;;;;;;;8.17;100.00;97754.34;5073324;28;20185;-74
2021/10/08 04:20:02;;;;;;;17.23;9.93;;;;;;;8.19;100.00;97758.34;5073509;28;20173;-74
2021/10/08 04:22:28;;;;;;;11.80;8.73;;;;;;;8.24;100.00;97753.41;5073534;28;20235;-74
2021/10/08 04:24:53;;;;;;;11.90;8.97;;;;;;;8.12;100.00;97756.69;5055488;28;20277;-74
2021/10/08 04:27:18;;;;;;;13.47;10.30;;;;;;;8.01;100.00;97768.44;5072919;28;20181;-74
2021/10/08 04:29:44;;;;;;;13.50;9.63;;;;;;;7.97;100.00;97761.97;5073035;28;20207;-73
2021/10/08 04:32:09;;;;;;;13.03;9.73;;;;;;;8.01;100.00;97755.41;5073547;28;20207;-73
2021/10/08 04:34:35;;;;;;;18.50;10.73;;;;;;;7.86;100.00;97750.22;5055586;28;20186;-73
2021/10/08 04:37:00;;;;;;;14.20;10.50;;;;;;;8.07;100.00;97753.84;5072278;28;20189;-74
2021/10/08 04:39:25;;;;;;;13.13;9.37;;;;;;;8.16;100.00;97753.53;5073586;28;20264;-73
2021/10/08 04:41:51;;;;;;;15.07;10.20;;;;;;;8.12;100.00;97744.44;5073631;28;20202;-73
2021/10/08 04:44:17;;;;;;;17.87;10.30;;;;;;;8.02;100.00;97753.59;5073208;28;20178;-73
2021/10/08 04:46:42;;;;;;;12.90;9.47;;;;;;;8.02;100.00;97751.78;5073225;28;20196;-74
2021/10/08 04:49:08;;;;;;;16.27;10.00;;;;;;;7.97;100.00;97751.53;5073243;28;20185;-73
2021/10/08 04:51:33;;;;;;;13.17;10.20;;;;;;;8.05;100.00;97756.63;5072611;28;20238;-74
2021/10/08 04:53:58;;;;;;;13.07;10.33;;;;;;;7.99;100.00;97748.72;5073195;28;20242;-73
2021/10/08 04:56:24;;;;;;;12.33;10.07;;;;;;;8.02;100.00;97753.59;5071980;28;20281;-73
2021/10/08 04:58:49;;;;;;;15.73;11.27;;;;;;;7.97;100.00;97755.97;5072441;28;20657;-74
2021/10/08 05:01:14;;;;;;;17.57;10.50;;;;;;;8.11;100.00;97753.28;5072764;28;20197;-73
2021/10/08 05:03:41;;;;;;;12.70;9.97;;;;;;;7.85;100.00;97747.81;5072910;28;20288;-73
2021/10/08 05:06:06;;;;;;;13.67;10.27;;;;;;;7.93;100.00;97761.53;5066643;28;20185;-73
2021/10/08 05:08:32;;;;;;;13.60;11.03;;;;;;;7.88;100.00;97760.47;5072948;28;20255;-73
2021/10/08 05:10:57;;;;;;;15.87;10.97;;;;;;;7.87;100.00;97753.63;5072630;28;20232;-73
2021/10/08 05:13:23;;;;;;;15.13;11.20;;;;;;;8.05;100.00;97750.59;5072320;28;20642;-74
2021/10/08 05:15:48;;;;;;;16.47;10.87;;;;;;;7.99;100.00;97746.94;5054552;28;20208;-74
2021/10/08 05:18:15;;;;;;;13.30;10.97;;;;;;;7.84;100.00;97747.00;5072489;28;20226;-74
2021/10/08 05:20:40;;;;;;;13.10;10.90;;;;;;;7.84;100.00;97748.78;5072073;28;20220;-74
2021/10/08 05:23:06;;;;;;;13.17;10.57;;;;;;;8.02;100.00;97753.59;5072774;28;20185;-74
2021/10/08 05:25:31;;;;;;;15.17;11.27;;;;;;;7.90;100.00;97751.47;5071599;28;20268;-73
2021/10/08 05:27:57;;;;;;;15.60;11.20;;;;;;;7.78;100.00;97759.97;5073020;28;20193;-73
2021/10/08 05:30:22;;;;;;;13.80;10.40;;;;;;;7.93;100.00;97753.69;5072127;28;20555;-73
2021/10/08 05:32:50;;;;;;;15.37;10.67;;;;;;;7.95;100.00;97753.53;5071771;28;20185;-73
2021/10/08 05:35:15;;;;;;;13.23;10.53;;;;;;;7.97;100.00;97750.75;5072286;28;20181;-74
2021/10/08 05:37:40;;;;;;;19.63;12.33;;;;;;;8.05;100.00;97750.59;5071682;28;20185;-74
2021/10/08 05:40:07;;;;;;;16.40;10.43;;;;;;;8.08;100.00;97750.25;5072576;28;20182;-74
2021/10/08 05:42:33;;;;;;;16.57;11.37;;;;;;;8.03;100.00;97752.56;5071777;28;20193;-74
2021/10/08 05:44:59;;;;;;;16.97;10.50;;;;;;;8.08;100.00;97758.06;5072520;28;20660;-73
2021/10/08 05:47:25;;;;;;;16.87;12.50;;;;;;;7.91;100.00;97758.28;5072054;28;20177;-73
2021/10/08 05:49:50;;;;;;;16.03;11.30;;;;;;;7.87;100.00;97756.25;5072013;28;20224;-73
2021/10/08 05:52:16;;;;;;;14.43;11.10;;;;;;;8.12;100.00;97762.72;5053634;28;20557;-73
2021/10/08 05:54:42;;;;;;;16.70;11.37;;;;;;;7.99;100.00;97764.38;5072056;28;20181;-71
2021/10/08 05:57:08;;;;;;;19.03;10.93;;;;;;;8.13;100.00;97764.34;5071505;28;20657;-72
2021/10/08 05:59:34;;;;;;;15.17;11.90;;;;;;;8.18;100.00;97769.00;5054159;28;20196;-72
2021/10/08 06:01:59;;;;;;;16.03;11.63;;;;;;;8.26;100.00;97764.44;5053531;28;20217;-72
2021/10/08 06:04:24;;;;;;;15.53;11.37;;;;;;;8.32;100.00;97768.97;5071992;28;20550;-73
2021/10/08 06:06:50;;;;;;;15.47;13.47;;;;;;;8.37;100.00;97771.00;5070955;28;20394;-73
2021/10/08 06:09:15;;;;;;;14.40;11.83;;;;;;;8.53;100.00;97769.91;5071271;28;20872;-72
2021/10/08 06:11:40;;;;;;;13.03;11.60;;;;;;;8.58;100.00;97772.81;5071022;28;20439;-72
2021/10/08 06:14:06;;;;;;;12.37;10.40;;;;;;;8.50;100.00;97772.94;5052368;28;20479;-71
2021/10/08 06:16:31;;;;;;;11.67;10.47;;;;;;;8.61;100.00;97772.41;5069875;28;20445;-72
2021/10/08 06:18:57;;;;;;;13.93;10.97;;;;;;;8.74;100.00;97777.75;5070508;28;20403;-72
2021/10/08 06:21:23;;;;;;;12.97;9.03;;;;;;;8.84;100.00;97778.22;5070863;28;20240;-72
2021/10/08 06:23:49;;;;;;;11.77;8.93;;;;;;;8.80;100.00;97776.19;5071877;28;20173;-72
2021/10/08 06:26:14;;;;;;;11.83;8.80;;;;;;;9.05;99.58;97778.16;5071325;28;20545;-73
2021/10/08 06:28:40;;;;;;;11.47;8.60;;;;;;;9.14;99.51;97781.41;5069777;28;20536;-73
2021/10/08 06:31:05;;;;;;;10.33;9.10;;;;;;;9.21;97.57;97781.44;5071668;28;20181;-72
2021/10/08 06:33:30;;;;;;;14.33;8.47;;;;;;;9.06;98.39;97786.78;5071358;28;20626;-72
2021/10/08 06:35:56;;;;;;;11.60;9.13;;;;;;;8.98;99.89;97779.91;5071126;28;20298;-73
2021/10/08 06:38:21;;;;;;;12.97;9.63;;;;;;;9.06;98.40;97784.19;5072008;28;20182;-72
2021/10/08 06:40:47;;;;;;;10.67;8.77;;;;;;;9.09;99.65;97784.59;5071970;28;20575;-68
2021/10/08 06:43:12;;;;;;;12.70;9.17;;;;;;;9.14;99.52;97789.25;5071931;28;20213;-72
2021/10/08 06:45:37;;;;;;;11.77;9.50;;;;;;;9.37;97.04;97799.44;5053837;28;20208;-72
2021/10/08 06:48:04;;;;;;;10.80;8.40;;;;;;;9.40;97.33;97792.03;5071589;28;20590;-72
2021/10/08 06:50:29;;;;;;;13.03;8.53;;;;;;;9.51;96.41;97788.84;5071419;28;20181;-70
2021/10/08 06:52:55;;;;;;;9.73;8.23;;;;;;;9.66;95.96;97799.16;5053802;28;20672;-71
2021/10/08 06:55:21;;;;;;;10.07;8.17;;;;;;;9.76;94.93;97790.94;5072171;28;20219;-73
2021/10/08 06:57:46;;;;;;;10.00;7.87;;;;;;;9.60;96.01;97786.88;5072215;28;20178;-73
2021/10/08 07:00:12;;;;;;;11.70;7.67;;;;;;;9.74;95.62;97788.53;5066551;28;20186;-74
2021/10/08 07:02:52;;;;;;;10.43;8.73;;;;;;;10.03;93.54;97788.19;5055247;28;20185;-73
2021/10/08 07:05:19;;;;;;;12.67;8.70;;;;;;;10.09;93.33;97791.84;5056252;28;20189;-73
2021/10/08 07:07:45;;;;;;;11.03;8.50;;;;;;;10.19;92.42;97783.66;5072730;28;20687;-73
2021/10/08 07:10:10;;;;;;;11.70;8.93;;;;;;;10.31;91.88;97782.84;5073890;28;20257;-73
2021/10/08 07:12:36;;;;;;;9.13;8.07;;;;;;;10.41;91.51;97791.13;5056278;28;20193;-73
2021/10/08 07:15:05;;;;;;;10.17;8.13;;;;;;;10.50;90.35;97788.31;5039805;28;20192;-73
2021/10/08 07:17:30;;;;;;;10.97;8.30;;;;;;;10.60;90.17;97786.09;5074772;28;20590;-73
2021/10/08 07:19:56;;;;;;;8.67;7.50;;;;;;;10.84;89.19;97790.72;5074206;28;20189;-73
2021/10/08 07:22:21;;;;;;;11.90;7.97;;;;;;;11.08;88.43;97789.28;5074457;28;20288;-73
2021/10/08 07:24:49;;;;;;;9.63;7.47;;;;;;;11.27;86.34;97785.78;5070016;28;20209;-73
2021/10/08 07:27:17;;;;;;;10.17;7.47;;;;;;;11.23;85.99;97790.66;5074240;28;20266;-73
2021/10/08 07:29:43;;;;;;;10.03;6.77;;;;;;;11.27;85.52;97791.03;5073677;28;20177;-73
2021/10/08 07:32:08;;;;;;;9.83;7.60;;;;;;;11.36;85.82;97784.59;5074070;28;20189;-73
2021/10/08 07:34:34;;;;;;;9.20;7.93;;;;;;;11.21;85.64;97791.88;5071291;28;20185;-73
2021/10/08 07:37:00;;;;;;;9.47;7.40;;;;;;;11.11;86.59;97783.63;5073571;28;20181;-73
2021/10/08 07:39:25;;;;;;;9.17;7.30;;;;;;;11.13;86.25;97784.22;5073703;28;20235;-73
2021/10/08 07:41:50;;;;;;;10.17;7.77;;;;;;;10.94;87.71;97787.69;5073750;28;20206;-73
2021/10/08 07:44:16;;;;;;;9.30;7.20;;;;;;;11.00;87.36;97789.50;5055350;28;20215;-73
2021/10/08 07:46:42;;;;;;;8.63;7.00;;;;;;;11.13;87.25;97792.91;5073774;28;20185;-73
2021/10/08 07:49:07;;;;;;;9.53;7.30;;;;;;;11.34;85.50;97798.91;5073434;28;20197;-73
2021/10/08 07:51:33;;;;;;;13.37;7.60;;;;;;;11.21;86.75;97786.63;5072889;28;20191;-73
2021/10/08 07:53:58;;;;;;;9.50;7.10;;;;;;;10.95;88.45;97786.66;5073735;28;20184;-72
2021/10/08 07:56:25;;;;;;;8.17;7.07;;;;;;;10.77;88.45;97777.59;5056097;28;20227;-73
2021/10/08 07:58:50;;;;;;;10.77;6.63;;;;;;;10.82;88.89;97777.81;5056202;28;20190;-73
2021/10/08 08:01:16;;;;;;;8.50;7.60;;;;;;;10.97;88.50;97782.03;5074149;28;20209;-73
2021/10/08 08:03:42;;;;;;;9.43;7.37;;;;;;;11.05;87.77;97781.81;5056358;28;20204;-73
2021/10/08 08:06:07;;;;;;;13.63;7.47;;;;;;;10.89;88.54;97782.25;5066704;28;20185;-73
2021/10/08 08:08:32;;;;;;;9.63;7.53;;;;;;;10.93;88.42;97784.25;5061650;28;20777;-73
2021/10/08 08:10:58;;;;;;;10.47;7.83;;;;;;;11.24;87.73;97783.59;5073523;28;20665;-72
2021/10/08 08:13:23;;;;;;;11.27;7.13;;;;;;;11.01;88.30;97781.44;5072248;28;20185;-72
2021/10/08 08:15:49;;;;;;;7.33;6.50;;;;;;;11.18;87.90;97781.78;5072558;28;20181;-73
2021/10/08 08:18:15;;;;;;;10.63;6.83;;;;;;;11.40;87.05;97780.53;5068362;28;20196;-73
2021/10/08 08:20:41;;;;;;;7.67;6.60;;;;;;;11.22;87.19;97791.66;5072479;28;20201;-73
2021/10/08 08:23:07;;;;;;;10.37;7.20;;;;;;;11.31;88.20;97776.53;5054962;28;20217;-73
2021/10/08 08:25:32;;;;;;;8.60;7.20;;;;;;;11.66;85.90;97779.59;5072571;28;20181;-73
2021/10/08 08:27:58;;;;;;;10.17;7.10;;;;;;;11.79;84.89;97782.22;5073336;28;20268;-73
2021/10/08 08:30:23;;;;;;;10.10;6.97;;;;;;;11.89;84.93;97781.75;5072341;28;20228;-73
2021/10/08 08:32:48;;;;;;;9.00;7.33;;;;;;;11.86;85.01;97788.25;5054983;28;20188;-73
2021/10/08 08:35:14;;;;;;;8.50;7.03;;;;;;;11.67;85.42;97784.66;5073093;28;20185;-73
2021/10/08 08:37:39;;;;;;;9.97;6.73;;;;;;;11.48;85.82;97784.75;5072830;28;20276;-73
2021/10/08 08:40:07;;;;;;;8.80;7.03;;;;;;;11.46;87.23;97784.94;5054984;28;20645;-73
2021/10/08 08:42:33;;;;;;;8.67;7.27;;;;;;;11.55;86.64;97780.25;5073264;28;20189;-72
2021/10/08 08:44:58;;;;;;;12.43;7.30;;;;;;;11.58;86.68;97772.78;5073480;28;20237;-72
2021/10/08 08:47:24;;;;;;;9.60;7.77;;;;;;;11.95;85.52;97779.09;5072383;28;20234;-73
2021/10/08 08:49:50;;;;;;;12.73;8.43;;;;;;;12.11;84.34;97775.16;5072254;28;20637;-73
2021/10/08 08:52:15;;;;;;;10.80;7.87;;;;;;;12.32;83.47;97768.75;5072873;28;21062;-73
2021/10/08 08:54:42;;;;;;;11.87;6.90;;;;;;;12.47;82.71;97771.91;5072577;28;20604;-73
2021/10/08 08:57:16;;;;;;;8.87;7.53;;;;;;;12.55;81.47;97770.81;5072466;28;20188;-73
2021/10/08 08:59:59;;;;;;;10.27;7.20;;;;;;;12.31;82.41;97764.53;5072045;28;20185;-73
2021/10/08 09:02:26;;;;;;;10.37;7.37;;;;;;;12.27;82.40;97772.03;5071691;28;20209;-73
2021/10/08 09:04:53;;;;;;;8.90;7.13;;;;;;;12.38;82.75;97771.34;5054829;28;20192;-73
2021/10/08 09:07:19;;;;;;;9.63;7.27;;;;;;;12.31;82.57;97782.94;5061166;28;20264;-73
2021/10/08 09:09:44;;;;;;;9.90;7.60;;;;;;;12.24;83.24;97775.09;5072260;28;20530;-72
2021/10/08 09:12:10;;;;;;;10.60;6.77;;;;;;;12.87;81.66;97780.25;5053909;28;20195;-73
2021/10/08 09:14:35;;;;;;;10.63;7.20;;;;;;;12.89;79.82;97773.75;5054512;28;20192;-73
2021/10/08 09:17:04;;;;;;;11.40;7.13;;;;;;;12.81;80.79;97779.31;5072486;28;20188;-73
2021/10/08 09:19:46;;;;;;;9.77;7.00;;;;;;;12.85;79.98;97769.94;5072460;28;20185;-72
2021/10/08 09:22:14;;;;;;;7.67;6.77;;;;;;;12.74;80.50;97777.75;5063721;28;20209;-73
2021/10/08 09:24:39;;;;;;;10.07;7.03;;;;;;;12.87;79.86;97775.78;5072176;28;20181;-73
2021/10/08 09:27:14;;;;;;;7.80;6.43;;;;;;;12.83;79.84;97771.16;5071792;28;20703;-73
2021/10/08 09:29:52;;;;;;;7.77;6.70;;;;;;;12.78;80.47;97773.66;5072441;28;20187;-73
2021/10/08 09:32:19;;;;;;;8.13;7.07;;;;;;;12.68;81.26;97776.78;5053940;28;20529;-73
2021/10/08 09:34:44;;;;;;;9.30;6.70;;;;;;;12.77;81.24;97775.47;5072267;28;20182;-72
2021/10/08 09:37:12;;;;;;;8.17;6.43;;;;;;;12.72;81.51;97775.31;5072079;28;20507;-73
2021/10/08 09:39:38;;;;;;;8.13;7.03;;;;;;;12.69;81.11;97770.50;5072371;28;20185;-72
2021/10/08 09:42:08;;;;;;;9.87;6.93;;;;;;;12.42;83.14;97769.91;5071661;28;20239;-72
2021/10/08 09:44:36;;;;;;;9.93;7.43;;;;;;;12.49;82.17;97775.09;5072043;28;20271;-72
2021/10/08 09:47:20;;;;;;;9.67;7.73;;;;;;;12.72;81.33;97772.69;5053397;28;20548;-72
2021/10/08 09:49:47;;;;;;;10.43;7.40;;;;;;;12.50;83.04;97780.16;5071707;28;20540;-72
2021/10/08 09:52:30;;;;;;;11.70;7.87;;;;;;;12.52;82.32;97777.31;5071114;28;20185;-72
2021/10/08 09:54:59;;;;;;;11.50;7.43;;;;;;;12.63;82.24;97779.25;5071771;28;20211;-72
2021/10/08 09:57:25;;;;;;;7.93;7.13;;;;;;;12.38;83.61;97781.03;5071268;28;20245;-72
2021/10/08 09:59:52;;;;;;;10.40;7.33;;;;;;;12.30;83.98;97779.50;5071913;28;20237;-72
2021/10/08 10:02:18;;;;;;;11.47;7.67;;;;;;;12.33;84.52;97770.38;5071715;28;20200;-72
2021/10/08 10:04:59;;;;;;;10.33;7.30;;;;;;;12.38;84.59;97767.91;5053275;28;20315;-72
2021/10/08 10:07:25;;;;;;;11.40;8.17;;;;;;;12.30;85.13;97763.72;5071851;28;20181;-72
2021/10/08 10:09:51;;;;;;;11.53;7.63;;;;;;;12.23;86.30;97762.16;5071663;28;20541;-71
2021/10/08 10:12:19;;;;;;;11.30;7.87;;;;;;;12.08;86.48;97759.84;5071182;28;20213;-71
2021/10/08 10:14:47;;;;;;;9.60;8.20;;;;;;;12.01;86.95;97762.50;5071901;28;20198;-71
2021/10/08 10:17:14;;;;;;;8.70;7.17;;;;;;;12.09;86.38;97775.38;5071503;28;20177;-72
2021/10/08 10:19:45;;;;;;;11.40;8.47;;;;;;;12.21;86.96;97764.97;5071546;28;20177;-72
2021/10/08 10:22:16;;;;;;;11.17;8.37;;;;;;;12.36;86.21;97770.75;5071227;28;20212;-72
2021/10/08 10:24:43;;;;;;;10.17;7.83;;;;;;;12.43;86.20;97765.44;5070399;28;20188;-72
2021/10/08 10:27:11;;;;;;;10.50;6.97;;;;;;;12.64;85.13;97762.44;5071003;28;20675;-72
2021/10/08 10:29:38;;;;;;;8.17;7.33;;;;;;;12.82;84.86;97762.47;5071119;28;20204;-72
2021/10/08 10:32:07;;;;;;;9.77;7.00;;;;;;;12.76;85.23;97773.84;5070795;28;20185;-72
2021/10/08 10:34:38;;;;;;;9.27;6.73;;;;;;;13.12;83.83;97764.44;5071837;28;20185;-72
2021/10/08 10:37:06;;;;;;;11.53;7.07;;;;;;;12.64;85.03;97757.19;5075235;28;20223;-71
2021/10/08 10:39:31;;;;;;;10.67;7.30;;;;;;;12.73;85.35;97758.53;5074916;28;20188;-72
2021/10/08 10:42:00;;;;;;;9.73;7.53;;;;;;;12.96;84.28;97770.25;5074649;28;20205;-72
2021/10/08 10:44:34;;;;;;;9.60;7.10;;;;;;;12.82;84.52;97762.47;5073518;28;20276;-72
2021/10/08 10:47:32;;;;;;;14.67;8.30;;;;;;;12.91;84.87;97765.66;5075598;28;20170;-72
2021/10/08 10:50:18;;;;;;;8.37;7.07;;;;;;;13.08;84.38;97771.16;5075465;28;20242;-72
2021/10/08 10:52:53;;;;;;;10.63;7.53;;;;;;;13.18;82.52;97756.50;5074812;28;20212;-72
2021/10/08 10:55:20;;;;;;;8.53;6.77;;;;;;;13.08;83.20;97758.00;5043705;28;20180;-72
2021/10/08 10:57:57;;;;;;;8.37;6.77;;;;;;;12.98;84.14;97762.97;5075118;28;20630;-72
2021/10/08 11:00:27;;;;;;;10.40;7.77;;;;;;;13.25;82.74;97756.44;5074720;28;20189;-72
2021/10/08 11:03:12;;;;;;;9.83;7.37;;;;;;;13.03;83.27;97753.38;5073132;28;20260;-71
2021/10/08 11:05:58;;;;;;;9.53;6.87;;;;;;;13.24;83.70;97757.44;5073715;28;20309;-73
2021/10/08 11:08:23;;;;;;;7.83;6.63;;;;;;;13.69;81.47;97747.38;5067328;28;20174;-71
2021/10/08 11:11:00;;;;;;;8.97;6.47;;;;;;;13.71;80.64;97745.31;5074511;28;20268;-72
2021/10/08 11:13:37;;;;;;;10.10;6.80;;;;;;;13.76;80.20;97757.84;5069830;28;20239;-72
2021/10/08 11:16:08;;;;;;;10.73;6.87;;;;;;;13.84;79.92;97752.25;5074340;28;20192;-72
2021/10/08 11:18:49;;;;;;;7.90;5.87;;;;;;;14.18;79.61;97748.13;5054760;28;20186;-72
2021/10/08 11:21:27;;;;;;;6.93;6.17;;;;;;;14.32;77.94;97752.19;5069427;28;20270;-72
2021/10/08 11:23:53;;;;;;;7.17;6.13;;;;;;;14.19;78.94;97749.75;5050749;28;20673;-73
2021/10/08 11:26:18;;;;;;;9.17;5.87;;;;;;;14.11;78.60;97749.03;5069308;28;20212;-72
2021/10/08 11:28:46;;;;;;;10.70;6.87;;;;;;;14.05;78.84;97743.84;5069142;28;20238;-74
2021/10/08 11:31:20;;;;;;;10.47;6.53;;;;;;;13.93;79.05;97741.16;5069782;28;20235;-72